Time;durP1;ratioP1;P1;durP2;ratioP2;P2;SDS_P1;SDS_P2;PMS_P1;PMS_P2;Temp;Humidity;BMP_temperature;BMP_pressure;BME280_temperature;BME280_humidity;BME280_pressure;Samples;Min_cycle;Max_cycle;Signal;HPM_P1;HPM_P2
2024/03/20 00:01:38;;;;;;;10.83;9.33;;;7.10;99.90;;;;;;5116737;28;20441;-68
2024/03/20 00:04:06;;;;;;;12.87;10.43;;;7.10;99.90;;;;;;5116573;28;20532;-68
2024/03/20 00:06:33;;;;;;;12.33;10.10;;;7.10;99.90;;;;;;5116705;28;20445;-67
2024/03/20 00:09:00;;;;;;;12.37;9.87;;;7.10;99.90;;;;;;5116597;28;20491;-68
2024/03/20 00:11:27;;;;;;;9.70;8.67;;;7.10;99.90;;;;;;5116529;28;20464;-67
2024/03/20 00:13:53;;;;;;;14.40;10.40;;;7.10;99.90;;;;;;5116397;28;20416;-68
2024/03/20 00:16:20;;;;;;;11.40;10.23;;;7.10;99.90;;;;;;5116268;28;20484;-68
2024/03/20 00:18:47;;;;;;;10.67;9.57;;;7.00;99.90;;;;;;5116146;28;20449;-68
2024/03/20 00:21:16;;;;;;;10.80;9.50;;;7.10;99.90;;;;;;5116365;28;20450;-68
2024/03/20 00:23:43;;;;;;;10.00;8.73;;;7.00;99.90;;;;;;5116310;28;20944;-68
2024/03/20 00:26:09;;;;;;;12.57;9.53;;;7.10;99.90;;;;;;5116063;28;20925;-68
2024/03/20 00:28:37;;;;;;;10.30;8.80;;;7.10;99.90;;;;;;5116047;28;21051;-68
2024/03/20 00:31:04;;;;;;;11.17;9.70;;;7.10;99.90;;;;;;5116104;27;20448;-67
2024/03/20 00:33:30;;;;;;;11.47;9.50;;;7.10;99.90;;;;;;5115899;28;20493;-68
2024/03/20 00:35:56;;;;;;;12.50;10.37;;;7.00;99.90;;;;;;5116021;28;20819;-67
2024/03/20 00:38:24;;;;;;;11.87;10.23;;;6.90;99.90;;;;;;5115860;28;20556;-68
2024/03/20 00:40:51;;;;;;;12.00;10.03;;;6.90;99.90;;;;;;5115991;28;20469;-68
2024/03/20 00:43:18;;;;;;;9.90;8.60;;;7.00;99.90;;;;;;5115848;28;20537;-67
2024/03/20 00:45:44;;;;;;;12.40;9.47;;;7.10;99.90;;;;;;5115558;28;20451;-67
2024/03/20 00:48:11;;;;;;;13.60;9.93;;;7.00;99.90;;;;;;5115106;28;20541;-68
2024/03/20 00:50:37;;;;;;;12.07;9.70;;;7.00;99.90;;;;;;5115836;28;20858;-67
2024/03/20 00:53:04;;;;;;;10.00;9.00;;;6.90;99.90;;;;;;5115720;28;20511;-67
2024/03/20 00:55:32;;;;;;;15.20;10.20;;;6.90;99.90;;;;;;5115605;28;20441;-67
2024/03/20 00:57:58;;;;;;;11.03;9.10;;;6.80;99.90;;;;;;5115457;28;21004;-68
2024/03/20 01:00:24;;;;;;;15.47;10.60;;;6.80;99.90;;;;;;5115453;28;20881;-67
2024/03/20 01:02:51;;;;;;;11.90;9.87;;;6.50;99.90;;;;;;5115386;28;20445;-68
2024/03/20 01:05:18;;;;;;;13.17;10.93;;;6.30;99.90;;;;;;5115508;28;20532;-68
2024/03/20 01:07:44;;;;;;;11.88;9.88;;;6.00;99.90;;;;;;5115297;28;20947;-67
2024/03/20 01:10:11;;;;;;;11.53;9.10;;;6.00;99.90;;;;;;5115345;28;20329;-68
2024/03/20 01:12:39;;;;;;;13.60;10.10;;;6.00;99.90;;;;;;5115292;28;20523;-68
2024/03/20 01:15:06;;;;;;;15.80;12.00;;;5.90;99.90;;;;;;5115108;28;20446;-67
2024/03/20 01:17:33;;;;;;;12.03;10.70;;;5.90;99.90;;;;;;5115254;28;20905;-68
2024/03/20 01:20:00;;;;;;;15.20;10.47;;;6.00;99.90;;;;;;5115180;28;20474;-68
2024/03/20 01:22:27;;;;;;;13.33;10.47;;;6.00;99.90;;;;;;5115019;28;20960;-67
2024/03/20 01:24:53;;;;;;;11.67;9.97;;;6.00;99.90;;;;;;5114905;28;21040;-68
2024/03/20 01:27:20;;;;;;;14.15;11.75;;;6.10;99.90;;;;;;5114951;28;20470;-68
2024/03/20 01:29:47;;;;;;;15.00;11.60;;;6.20;99.90;;;;;;5114828;28;20188;-67
2024/03/20 01:32:14;;;;;;;10.90;9.43;;;6.10;99.90;;;;;;5115018;28;20424;-68
2024/03/20 01:34:40;;;;;;;12.30;10.50;;;6.20;99.90;;;;;;5114931;28;20507;-68
2024/03/20 01:37:07;;;;;;;14.73;10.65;;;6.20;99.90;;;;;;5114753;28;21052;-67
2024/03/20 01:39:33;;;;;;;12.47;9.83;;;6.20;99.90;;;;;;5114727;28;20290;-67
2024/03/20 01:42:00;;;;;;;14.20;10.73;;;6.10;99.90;;;;;;5114700;28;20534;-68
2024/03/20 01:44:26;;;;;;;13.70;11.35;;;6.00;99.90;;;;;;5114508;28;20552;-67
2024/03/20 01:46:54;;;;;;;15.27;11.82;;;5.70;99.90;;;;;;5114421;28;20216;-67
2024/03/20 01:49:21;;;;;;;13.90;10.80;;;5.70;99.90;;;;;;5114632;28;20283;-67
2024/03/20 01:51:48;;;;;;;11.50;9.77;;;5.80;99.90;;;;;;5114855;28;20487;-68
2024/03/20 01:54:16;;;;;;;11.43;9.90;;;5.70;99.90;;;;;;5114276;28;20553;-67
2024/03/20 01:56:43;;;;;;;12.35;10.05;;;5.70;99.90;;;;;;5114137;28;20991;-67
2024/03/20 01:59:10;;;;;;;12.70;10.63;;;5.70;99.90;;;;;;5113723;28;20590;-67
2024/03/20 02:01:37;;;;;;;14.30;11.75;;;5.60;99.90;;;;;;5114380;28;20562;-67
2024/03/20 02:04:05;;;;;;;16.40;10.87;;;5.60;99.90;;;;;;5114364;28;20214;-67
2024/03/20 02:06:32;;;;;;;13.77;10.53;;;5.50;99.90;;;;;;5114291;28;20972;-68
2024/03/20 02:09:00;;;;;;;12.70;10.10;;;5.30;99.90;;;;;;5114129;28;20442;-67
2024/03/20 02:11:28;;;;;;;14.07;10.48;;;5.30;99.90;;;;;;5114055;28;20279;-67
2024/03/20 02:13:56;;;;;;;14.50;9.85;;;5.40;99.90;;;;;;5114187;28;20279;-67
2024/03/20 02:16:24;;;;;;;12.20;10.43;;;5.40;99.90;;;;;;5114090;28;20215;-67
2024/03/20 02:18:52;;;;;;;13.63;10.30;;;5.50;99.90;;;;;;5114072;28;20282;-67
2024/03/20 02:21:20;;;;;;;14.77;10.85;;;5.50;99.90;;;;;;5113914;28;20835;-67
2024/03/20 02:23:48;;;;;;;17.33;10.25;;;5.40;99.90;;;;;;5113826;28;20661;-67
2024/03/20 02:26:14;;;;;;;14.77;10.50;;;5.40;99.90;;;;;;5114168;28;20200;-67
2024/03/20 02:28:43;;;;;;;11.27;9.98;;;5.40;99.90;;;;;;5114079;28;20816;-68
2024/03/20 02:31:11;;;;;;;13.03;11.13;;;5.40;99.90;;;;;;5113926;28;20271;-67
2024/03/20 02:33:38;;;;;;;12.80;9.97;;;5.30;99.90;;;;;;5113931;28;20552;-67
2024/03/20 02:36:06;;;;;;;14.65;11.13;;;5.20;99.90;;;;;;5113725;28;20552;-67
2024/03/20 02:38:35;;;;;;;12.65;10.02;;;5.00;99.90;;;;;;5113618;28;20184;-67
2024/03/20 02:41:01;;;;;;;12.70;10.95;;;4.70;99.90;;;;;;5114138;28;20530;-67
2024/03/20 02:43:28;;;;;;;11.77;10.35;;;4.80;99.90;;;;;;5113745;28;20223;-67
2024/03/20 02:45:55;;;;;;;13.43;10.55;;;4.90;99.90;;;;;;5113474;28;20231;-67
2024/03/20 02:48:22;;;;;;;13.70;9.55;;;5.00;99.90;;;;;;5113559;28;20183;-67
2024/03/20 02:50:49;;;;;;;12.93;10.30;;;5.00;99.90;;;;;;5113545;28;20616;-67
2024/03/20 02:53:15;;;;;;;11.93;9.85;;;5.10;99.90;;;;;;5113456;28;20275;-67
2024/03/20 02:55:45;;;;;;;11.75;9.43;;;5.20;99.90;;;;;;5113660;28;20187;-67
2024/03/20 02:58:11;;;;;;;14.73;9.77;;;5.10;99.90;;;;;;5113460;28;20246;-67
2024/03/20 03:00:38;;;;;;;12.20;10.00;;;5.00;99.90;;;;;;5113694;28;20444;-67
2024/03/20 03:03:05;;;;;;;12.80;9.85;;;5.00;99.90;;;;;;5113421;28;20220;-66
2024/03/20 03:05:32;;;;;;;12.88;10.50;;;5.00;99.90;;;;;;5113422;28;20655;-66
2024/03/20 03:07:58;;;;;;;14.02;11.48;;;5.00;99.90;;;;;;5113500;28;20183;-66
2024/03/20 03:10:27;;;;;;;13.23;11.25;;;4.90;99.90;;;;;;5114900;28;20279;-66
2024/03/20 03:12:54;;;;;;;13.13;10.07;;;4.90;99.90;;;;;;5117636;28;20547;-66
2024/03/20 03:15:21;;;;;;;13.60;9.85;;;5.00;99.90;;;;;;5117567;28;20282;-66
2024/03/20 03:17:52;;;;;;;13.75;10.82;;;5.00;99.90;;;;;;5117351;28;20247;-66
2024/03/20 03:20:21;;;;;;;14.15;11.70;;;4.90;99.90;;;;;;5117639;28;20279;-66
2024/03/20 03:22:47;;;;;;;13.80;10.47;;;5.00;99.90;;;;;;5117479;28;20241;-66
2024/03/20 03:25:14;;;;;;;14.60;10.38;;;5.00;99.90;;;;;;5117690;28;20540;-67
2024/03/20 03:27:41;;;;;;;12.97;10.07;;;5.10;99.90;;;;;;5117395;28;20648;-67
2024/03/20 03:30:10;;;;;;;12.88;10.10;;;5.20;99.90;;;;;;5117144;28;20441;-66
2024/03/20 03:32:36;;;;;;;12.48;10.00;;;5.20;99.90;;;;;;5117106;28;20283;-66
2024/03/20 03:35:03;;;;;;;15.82;11.05;;;5.30;99.90;;;;;;5117260;28;20266;-66
2024/03/20 03:37:30;;;;;;;13.30;10.90;;;5.30;99.90;;;;;;5116828;28;20292;-66
2024/03/20 03:39:57;;;;;;;14.57;12.13;;;5.40;99.90;;;;;;5117110;28;20191;-66
2024/03/20 03:42:23;;;;;;;15.27;10.52;;;5.40;99.90;;;;;;5117088;28;20188;-66
2024/03/20 03:44:50;;;;;;;11.10;9.65;;;5.40;99.90;;;;;;5116831;28;20614;-66
2024/03/20 03:47:17;;;;;;;12.93;10.48;;;5.30;99.90;;;;;;5116825;28;20219;-66
2024/03/20 03:49:44;;;;;;;14.52;10.27;;;5.20;99.90;;;;;;5117081;28;20274;-66
2024/03/20 03:52:10;;;;;;;15.13;11.45;;;5.10;99.90;;;;;;5117026;28;20187;-66
2024/03/20 03:54:37;;;;;;;16.60;11.80;;;5.10;99.90;;;;;;5116815;28;20214;-66
2024/03/20 03:57:04;;;;;;;18.55;12.15;;;5.10;99.90;;;;;;5116719;28;20577;-66
2024/03/20 03:59:30;;;;;;;14.80;12.20;;;5.00;99.90;;;;;;5116652;28;20183;-66
2024/03/20 04:01:57;;;;;;;14.75;11.80;;;5.00;99.90;;;;;;5116546;28;20198;-67
2024/03/20 04:04:24;;;;;;;14.37;12.00;;;5.00;99.90;;;;;;5116794;28;20615;-67
2024/03/20 04:06:51;;;;;;;15.82;11.70;;;4.90;99.90;;;;;;5116628;28;20448;-67
2024/03/20 04:09:17;;;;;;;15.00;11.90;;;5.00;99.90;;;;;;5116559;28;20275;-67
2024/03/20 04:11:44;;;;;;;16.40;11.75;;;5.00;99.90;;;;;;5116877;28;20237;-67
2024/03/20 04:14:11;;;;;;;19.02;12.93;;;5.10;99.90;;;;;;5116335;28;20286;-67
2024/03/20 04:16:37;;;;;;;24.10;13.95;;;5.20;99.90;;;;;;5116429;28;20211;-67
2024/03/20 04:19:04;;;;;;;19.23;13.38;;;5.20;99.90;;;;;;5116524;28;20188;-67
2024/03/20 04:21:32;;;;;;;20.63;13.20;;;5.10;99.90;;;;;;5115496;28;20271;-67
2024/03/20 04:23:59;;;;;;;17.75;14.20;;;5.00;99.90;;;;;;5116335;28;20279;-67
2024/03/20 04:26:25;;;;;;;17.27;13.95;;;5.10;99.90;;;;;;5116240;28;20188;-67
2024/03/20 04:28:52;;;;;;;14.88;11.98;;;5.10;99.90;;;;;;5116035;28;20282;-67
2024/03/20 04:31:18;;;;;;;16.20;12.95;;;5.10;99.90;;;;;;5116056;28;20192;-67
2024/03/20 04:33:45;;;;;;;19.20;13.77;;;5.00;99.90;;;;;;5116228;28;20274;-67
2024/03/20 04:36:12;;;;;;;15.40;12.32;;;5.00;99.90;;;;;;5116127;28;20609;-67
2024/03/20 04:38:41;;;;;;;13.75;11.18;;;4.90;99.90;;;;;;5116134;28;20216;-67
2024/03/20 04:41:08;;;;;;;13.20;10.85;;;4.90;99.90;;;;;;5115869;28;20188;-67
2024/03/20 04:43:35;;;;;;;13.40;11.20;;;4.90;99.90;;;;;;5115552;28;20215;-67
2024/03/20 04:46:01;;;;;;;16.83;12.07;;;4.90;99.90;;;;;;5115760;28;20710;-67
2024/03/20 04:48:28;;;;;;;14.35;10.85;;;4.80;99.90;;;;;;5115778;28;20233;-67
2024/03/20 04:50:56;;;;;;;19.42;12.45;;;4.80;99.90;;;;;;5115686;28;20605;-66
2024/03/20 04:53:23;;;;;;;15.80;12.85;;;4.80;99.90;;;;;;5115653;28;20192;-67
2024/03/20 04:55:52;;;;;;;20.70;13.13;;;5.00;99.90;;;;;;5115526;28;20274;-67
2024/03/20 04:58:18;;;;;;;16.42;11.63;;;5.00;99.90;;;;;;5115438;28;20339;-67
2024/03/20 05:00:45;;;;;;;16.52;12.25;;;4.90;99.90;;;;;;5115625;28;20184;-67
2024/03/20 05:03:11;;;;;;;19.25;14.00;;;4.80;99.90;;;;;;5115599;28;20279;-67
2024/03/20 05:05:38;;;;;;;15.90;12.38;;;4.80;99.90;;;;;;5115408;28;20192;-67
2024/03/20 05:08:05;;;;;;;15.73;12.60;;;4.90;99.90;;;;;;5115419;28;20194;-66
2024/03/20 05:10:32;;;;;;;24.50;12.80;;;4.90;99.90;;;;;;5115226;28;20279;-66
2024/03/20 05:12:59;;;;;;;19.90;13.30;;;4.80;99.90;;;;;;5115133;28;20678;-66
2024/03/20 05:15:26;;;;;;;14.82;11.80;;;4.80;99.90;;;;;;5115265;28;20537;-66
2024/03/20 05:17:52;;;;;;;15.82;12.27;;;4.90;99.90;;;;;;5115171;28;20566;-66
2024/03/20 05:20:19;;;;;;;16.95;12.45;;;4.80;99.90;;;;;;5115249;28;20274;-66
2024/03/20 05:22:45;;;;;;;22.83;12.85;;;4.80;99.90;;;;;;5114962;28;20647;-66
2024/03/20 05:25:11;;;;;;;19.25;12.15;;;4.80;99.90;;;;;;5114895;28;20188;-66
2024/03/20 05:27:37;;;;;;;16.93;11.83;;;4.90;99.90;;;;;;5115141;28;20279;-66
2024/03/20 05:30:06;;;;;;;17.05;12.02;;;5.00;99.90;;;;;;5115024;28;20620;-66
2024/03/20 05:32:32;;;;;;;15.18;12.45;;;5.00;99.90;;;;;;5114846;28;20267;-66
2024/03/20 05:34:58;;;;;;;14.35;11.75;;;5.10;99.90;;;;;;5114867;28;20287;-66
2024/03/20 05:37:24;;;;;;;18.57;12.67;;;5.10;99.90;;;;;;5114702;28;20298;-66
2024/03/20 05:39:50;;;;;;;15.25;11.35;;;4.90;99.90;;;;;;5114646;28;20278;-66
2024/03/20 05:42:16;;;;;;;15.97;12.63;;;5.00;99.90;;;;;;5114689;28;20604;-66
2024/03/20 05:44:42;;;;;;;21.33;13.90;;;5.10;99.90;;;;;;5114662;28;20194;-66
2024/03/20 05:47:10;;;;;;;21.87;12.00;;;5.10;99.90;;;;;;5114340;28;20310;-66
2024/03/20 05:49:35;;;;;;;17.67;12.10;;;5.20;99.90;;;;;;5114465;28;20198;-66
2024/03/20 05:52:02;;;;;;;17.57;13.70;;;5.30;99.90;;;;;;5114368;28;20279;-67
2024/03/20 05:54:27;;;;;;;16.52;13.57;;;5.30;99.90;;;;;;5114361;28;20278;-66
2024/03/20 05:56:54;;;;;;;18.20;13.73;;;5.40;99.90;;;;;;5114476;28;20669;-67
2024/03/20 05:59:20;;;;;;;22.00;13.00;;;5.50;99.90;;;;;;5114097;28;20192;-66
2024/03/20 06:01:47;;;;;;;13.13;11.67;;;5.50;99.90;;;;;;5114260;28;20536;-66
2024/03/20 06:04:14;;;;;;;17.40;13.15;;;5.50;99.90;;;;;;5114299;28;20457;-66
2024/03/20 06:06:42;;;;;;;23.83;13.30;;;5.50;99.90;;;;;;5114164;28;20639;-67
2024/03/20 06:09:10;;;;;;;17.20;12.73;;;5.50;99.90;;;;;;5114508;28;20188;-67
2024/03/20 06:11:37;;;;;;;17.08;12.10;;;5.50;99.90;;;;;;5114163;28;20193;-66
2024/03/20 06:14:02;;;;;;;14.77;11.85;;;5.40;99.90;;;;;;5114182;28;20218;-66
2024/03/20 06:16:29;;;;;;;14.37;11.93;;;5.40;99.90;;;;;;5113973;28;20212;-67
2024/03/20 06:18:54;;;;;;;17.00;13.05;;;5.30;99.90;;;;;;5113933;28;20310;-66
2024/03/20 06:21:22;;;;;;;23.23;13.20;;;5.40;99.90;;;;;;5113894;28;20608;-66
2024/03/20 06:23:48;;;;;;;16.35;12.50;;;5.40;99.90;;;;;;5113964;28;20282;-66
2024/03/20 06:26:15;;;;;;;16.07;12.57;;;5.30;99.90;;;;;;5113788;28;20690;-66
2024/03/20 06:28:41;;;;;;;13.70;11.23;;;5.40;99.90;;;;;;5113655;28;20647;-66
2024/03/20 06:31:07;;;;;;;17.83;12.57;;;5.40;99.90;;;;;;5113581;28;20265;-66
2024/03/20 06:33:34;;;;;;;17.03;12.90;;;5.40;99.90;;;;;;5113670;28;20280;-66
2024/03/20 06:36:00;;;;;;;22.90;13.68;;;5.60;99.90;;;;;;5113581;28;20423;-66
2024/03/20 06:38:28;;;;;;;16.20;12.77;;;5.60;99.90;;;;;;5113795;28;20227;-67
2024/03/20 06:40:55;;;;;;;17.83;13.13;;;5.70;99.90;;;;;;5113394;28;20644;-67
2024/03/20 06:43:22;;;;;;;14.73;11.80;;;5.90;99.90;;;;;;5113592;28;20191;-67
2024/03/20 06:45:48;;;;;;;15.37;12.93;;;6.10;99.90;;;;;;5112910;28;20220;-66
2024/03/20 06:48:14;;;;;;;16.17;12.13;;;6.20;99.90;;;;;;5113602;28;20453;-68
2024/03/20 06:50:40;;;;;;;15.57;13.50;;;6.40;99.90;;;;;;5113359;28;20203;-67
2024/03/20 06:53:07;;;;;;;20.60;13.20;;;6.60;99.90;;;;;;5113298;28;20453;-67
2024/03/20 06:55:34;;;;;;;16.17;13.20;;;6.70;99.90;;;;;;5113572;28;20223;-66
2024/03/20 06:58:01;;;;;;;18.90;13.00;;;6.80;99.90;;;;;;5113223;28;20568;-67
2024/03/20 07:00:27;;;;;;;16.43;12.57;;;6.80;99.90;;;;;;5113393;28;20412;-67
2024/03/20 07:02:55;;;;;;;20.70;14.13;;;6.90;99.90;;;;;;5113318;28;20450;-67
2024/03/20 07:05:21;;;;;;;22.03;14.20;;;6.90;99.90;;;;;;5113227;28;20192;-67
2024/03/20 07:07:48;;;;;;;19.23;13.43;;;6.90;99.90;;;;;;5113217;28;20533;-67
2024/03/20 07:10:13;;;;;;;17.23;13.30;;;7.10;99.90;;;;;;5113189;28;20639;-66
2024/03/20 07:12:41;;;;;;;16.80;13.00;;;7.00;99.90;;;;;;5113370;28;20464;-67
2024/03/20 07:15:07;;;;;;;18.07;12.43;;;7.10;99.90;;;;;;5113307;28;20188;-67
2024/03/20 07:17:34;;;;;;;17.77;13.73;;;7.30;99.90;;;;;;5113073;28;20539;-67
2024/03/20 07:20:00;;;;;;;17.87;13.37;;;7.60;99.90;;;;;;5113343;28;20805;-67
2024/03/20 07:22:27;;;;;;;15.80;12.60;;;7.80;99.90;;;;;;5113395;28;20460;-67
2024/03/20 07:24:53;;;;;;;17.93;13.50;;;8.10;99.90;;;;;;5113444;28;20237;-67
2024/03/20 07:27:20;;;;;;;18.50;12.43;;;8.30;99.90;;;;;;5113159;28;20457;-67
2024/03/20 07:29:47;;;;;;;20.33;13.53;;;8.40;99.90;;;;;;5113053;28;20215;-66
2024/03/20 07:32:13;;;;;;;16.10;13.17;;;8.70;99.90;;;;;;5112859;28;20526;-66
2024/03/20 07:34:39;;;;;;;16.90;13.23;;;8.70;99.90;;;;;;5113130;28;20438;-66
2024/03/20 07:37:06;;;;;;;19.17;12.80;;;8.80;99.90;;;;;;5113054;28;20836;-66
2024/03/20 07:39:32;;;;;;;14.77;12.73;;;8.90;99.90;;;;;;5112937;28;20244;-66
2024/03/20 07:42:00;;;;;;;23.37;13.40;;;9.00;99.90;;;;;;5112676;28;20880;-67
2024/03/20 07:44:26;;;;;;;17.80;12.07;;;9.10;99.90;;;;;;5112858;28;20529;-66
2024/03/20 07:46:54;;;;;;;15.77;12.70;;;9.20;99.90;;;;;;5112551;28;20565;-66
2024/03/20 07:49:20;;;;;;;16.03;12.37;;;9.10;99.90;;;;;;5112688;28;20884;-67
2024/03/20 07:51:46;;;;;;;18.80;12.80;;;9.20;99.90;;;;;;5112860;28;20543;-66
2024/03/20 07:54:12;;;;;;;16.20;13.20;;;9.40;99.90;;;;;;5112817;28;20192;-67
2024/03/20 07:56:38;;;;;;;17.73;13.30;;;9.30;99.90;;;;;;5112747;28;20508;-65
2024/03/20 07:59:04;;;;;;;19.60;13.60;;;9.30;99.90;;;;;;5116258;28;20211;-66
2024/03/20 08:01:30;;;;;;;17.63;13.60;;;9.40;99.90;;;;;;5116099;28;20556;-62
2024/03/20 08:03:57;;;;;;;16.50;13.10;;;9.40;99.90;;;;;;5116558;28;20283;-63
2024/03/20 08:06:24;;;;;;;16.77;13.77;;;9.50;99.90;;;;;;5116137;28;20812;-66
2024/03/20 08:08:50;;;;;;;15.43;13.10;;;9.90;99.90;;;;;;5116199;28;20473;-62
2024/03/20 08:11:16;;;;;;;17.93;13.93;;;10.00;99.90;;;;;;5116320;28;20481;-63
2024/03/20 08:13:42;;;;;;;13.70;12.00;;;10.20;99.90;;;;;;5116257;28;20274;-66
2024/03/20 08:16:08;;;;;;;17.27;14.10;;;10.30;99.90;;;;;;5116403;28;20497;-67
2024/03/20 08:18:34;;;;;;;17.77;13.47;;;10.30;99.90;;;;;;5116153;28;20212;-70
2024/03/20 08:21:03;;;;;;;15.07;11.97;;;10.40;99.90;;;;;;5116211;28;20458;-69
2024/03/20 08:23:29;;;;;;;17.87;12.73;;;10.40;99.90;;;;;;5116087;28;20449;-65
2024/03/20 08:25:57;;;;;;;52.63;17.37;;;10.60;99.90;;;;;;5116003;28;20961;-67
2024/03/20 08:28:22;;;;;;;14.07;12.30;;;10.90;99.90;;;;;;5115523;28;20188;-67
2024/03/20 08:30:50;;;;;;;14.10;11.97;;;10.80;99.90;;;;;;5116069;28;20457;-67
2024/03/20 08:33:15;;;;;;;18.63;13.30;;;10.80;99.90;;;;;;5116048;28;20192;-64
2024/03/20 08:35:42;;;;;;;16.00;12.10;;;11.00;99.90;;;;;;5115889;28;20450;-62
2024/03/20 08:38:08;;;;;;;20.13;12.87;;;11.10;99.90;;;;;;5115671;28;20269;-64
2024/03/20 08:40:36;;;;;;;13.93;12.40;;;11.30;99.90;;;;;;5115808;28;20450;-62
2024/03/20 08:43:01;;;;;;;13.20;11.17;;;11.30;99.90;;;;;;5115535;28;20442;-65
2024/03/20 08:45:28;;;;;;;15.03;12.40;;;11.50;99.90;;;;;;5115687;28;20812;-64
2024/03/20 08:47:53;;;;;;;12.57;10.93;;;11.60;99.90;;;;;;5115762;28;20283;-60
2024/03/20 08:50:20;;;;;;;15.57;12.03;;;11.80;99.90;;;;;;5115624;28;20553;-62
2024/03/20 08:52:46;;;;;;;13.60;11.60;;;11.90;99.90;;;;;;5115823;28;20192;-62
2024/03/20 08:55:13;;;;;;;16.03;12.27;;;12.00;99.90;;;;;;5115568;28;20449;-65
2024/03/20 08:57:39;;;;;;;14.40;11.90;;;12.00;99.90;;;;;;5115201;28;20222;-62
2024/03/20 09:00:11;;;;;;;12.87;10.80;;;12.10;99.90;;;;;;5115486;28;20528;-64
2024/03/20 09:02:37;;;;;;;16.30;12.30;;;12.20;99.90;;;;;;5115438;28;20231;-64
2024/03/20 09:05:04;;;;;;;11.87;10.63;;;12.10;99.90;;;;;;5115267;28;20485;-65
2024/03/20 09:07:29;;;;;;;14.83;10.90;;;12.00;99.90;;;;;;5114611;28;20188;-66
2024/03/20 09:09:56;;;;;;;15.13;11.70;;;12.10;99.90;;;;;;5115087;28;20786;-64
2024/03/20 09:12:23;;;;;;;14.40;11.50;;;12.20;99.90;;;;;;5115299;28;20705;-68
2024/03/20 09:14:50;;;;;;;12.03;9.87;;;12.30;99.90;;;;;;5115148;28;20502;-63
2024/03/20 09:17:15;;;;;;;17.50;11.60;;;12.50;99.90;;;;;;5115042;28;20514;-64
2024/03/20 09:19:42;;;;;;;13.67;11.40;;;12.50;99.90;;;;;;5114896;28;20481;-66
2024/03/20 09:22:07;;;;;;;13.27;9.97;;;12.60;99.90;;;;;;5115001;28;20608;-62
2024/03/20 09:24:34;;;;;;;14.63;10.43;;;12.60;99.90;;;;;;5114815;28;20500;-63
2024/03/20 09:26:59;;;;;;;11.47;9.80;;;12.70;98.20;;;;;;5114695;28;20275;-64
2024/03/20 09:29:27;;;;;;;12.80;10.40;;;12.70;95.60;;;;;;5114939;28;20517;-62
2024/03/20 09:31:52;;;;;;;11.50;9.77;;;12.90;94.10;;;;;;5114828;28;20286;-62
2024/03/20 09:34:20;;;;;;;10.90;9.80;;;13.00;93.60;;;;;;5114740;28;20866;-62
2024/03/20 09:36:45;;;;;;;10.53;9.20;;;13.10;93.10;;;;;;5114541;28;20191;-62
2024/03/20 09:39:12;;;;;;;12.43;10.03;;;13.30;91.10;;;;;;5114465;28;20851;-64
2024/03/20 09:41:38;;;;;;;10.57;9.47;;;13.40;90.10;;;;;;5114655;28;20580;-64
2024/03/20 09:44:06;;;;;;;11.70;8.77;;;13.60;89.30;;;;;;5114186;28;21017;-65
2024/03/20 09:46:33;;;;;;;12.43;7.73;;;13.70;85.90;;;;;;5114308;28;20993;-67
2024/03/20 09:48:59;;;;;;;11.17;8.63;;;13.80;84.20;;;;;;5114365;28;20449;-61
2024/03/20 09:51:25;;;;;;;11.53;8.63;;;13.90;84.10;;;;;;5114338;28;20452;-61
2024/03/20 09:53:52;;;;;;;9.07;8.17;;;14.00;83.10;;;;;;5114133;28;20453;-63
2024/03/20 09:56:20;;;;;;;12.33;7.40;;;14.10;80.80;;;;;;5114370;28;20441;-63
2024/03/20 09:58:48;;;;;;;9.20;8.30;;;14.10;80.50;;;;;;5113934;28;20489;-66
2024/03/20 10:01:15;;;;;;;10.90;8.33;;;14.00;81.70;;;;;;5114172;28;20974;-60
2024/03/20 10:03:44;;;;;;;8.63;7.80;;;14.00;82.10;;;;;;5114100;28;20472;-64
2024/03/20 10:06:10;;;;;;;9.03;8.13;;;14.10;84.40;;;;;;5113966;28;20563;-62
2024/03/20 10:08:38;;;;;;;9.90;8.17;;;14.10;85.50;;;;;;5114050;28;20966;-65
2024/03/20 10:11:04;;;;;;;12.27;8.73;;;14.30;85.90;;;;;;5114190;28;20645;-68
2024/03/20 10:13:31;;;;;;;13.77;10.00;;;14.40;86.00;;;;;;5114110;28;20482;-62
2024/03/20 10:16:03;;;;;;;13.50;9.17;;;14.30;84.60;;;;;;5113934;28;20185;-62
2024/03/20 10:18:30;;;;;;;12.33;8.23;;;14.30;84.90;;;;;;5113868;28;20477;-63
2024/03/20 10:20:57;;;;;;;9.93;8.00;;;14.50;87.10;;;;;;5113005;28;20993;-68
2024/03/20 10:23:24;;;;;;;8.93;8.00;;;14.70;87.60;;;;;;5113721;28;20973;-68
2024/03/20 10:25:49;;;;;;;8.07;7.27;;;14.80;87.50;;;;;;5113744;28;20455;-64
2024/03/20 10:28:20;;;;;;;9.23;8.20;;;14.90;89.10;;;;;;5113583;28;20562;-68
2024/03/20 10:30:49;;;;;;;10.73;7.67;;;14.80;87.70;;;;;;5113750;28;20188;-69
2024/03/20 10:33:18;;;;;;;8.60;7.80;;;14.70;88.00;;;;;;5113521;28;20454;-65
2024/03/20 10:35:50;;;;;;;9.27;8.03;;;14.60;88.10;;;;;;5113518;28;20441;-67
2024/03/20 10:38:18;;;;;;;9.83;7.90;;;14.50;88.60;;;;;;5113659;28;20467;-67
2024/03/20 10:40:47;;;;;;;12.23;9.17;;;14.60;89.60;;;;;;5113405;28;20953;-64
2024/03/20 10:43:18;;;;;;;11.37;8.27;;;14.50;88.70;;;;;;5113410;28;20454;-63
2024/03/20 10:45:45;;;;;;;8.73;7.83;;;14.70;89.10;;;;;;5113197;28;20554;-67
2024/03/20 10:48:16;;;;;;;10.27;7.83;;;14.90;88.70;;;;;;5113229;28;20467;-68
2024/03/20 10:50:43;;;;;;;10.23;7.60;;;15.10;88.60;;;;;;5113180;28;21016;-70
2024/03/20 10:53:10;;;;;;;9.43;7.60;;;15.30;89.80;;;;;;5113411;28;20454;-67
2024/03/20 10:55:37;;;;;;;8.57;7.57;;;15.30;90.40;;;;;;5113220;28;21000;-70
2024/03/20 10:58:04;;;;;;;8.83;6.60;;;15.40;90.70;;;;;;5113215;28;20475;-71
2024/03/20 11:00:30;;;;;;;7.63;6.83;;;15.30;90.90;;;;;;5113152;28;20452;-69
2024/03/20 11:02:57;;;;;;;9.47;6.50;;;15.40;91.00;;;;;;5113425;28;20542;-68
2024/03/20 11:05:36;;;;;;;8.03;6.80;;;15.50;91.20;;;;;;5113339;28;20595;-63
2024/03/20 11:08:04;;;;;;;7.83;6.50;;;15.50;92.10;;;;;;5113170;28;20457;-63
2024/03/20 11:10:31;;;;;;;8.43;7.50;;;15.50;92.10;;;;;;5113296;28;20963;-62
2024/03/20 11:12:59;;;;;;;8.03;7.00;;;15.60;92.20;;;;;;5113042;28;20547;-64
2024/03/20 11:15:27;;;;;;;9.53;7.23;;;15.60;92.20;;;;;;5112934;28;21006;-65
2024/03/20 11:17:54;;;;;;;11.57;7.30;;;15.80;92.30;;;;;;5113207;28;20534;-63
2024/03/20 11:20:45;;;;;;;16.27;7.90;;;16.00;92.60;;;;;;5113059;28;20533;-59
2024/03/20 11:23:23;;;;;;;9.70;7.50;;;16.10;92.30;;;;;;5112810;28;20448;-62
2024/03/20 11:25:49;;;;;;;11.23;7.80;;;16.10;92.60;;;;;;5113185;28;20514;-61
2024/03/20 11:28:18;;;;;;;10.90;8.23;;;16.00;92.50;;;;;;5113080;28;20909;-61
2024/03/20 11:30:46;;;;;;;10.30;7.57;;;16.10;92.90;;;;;;5113324;28;20190;-61
2024/03/20 11:33:12;;;;;;;11.07;8.47;;;16.30;93.20;;;;;;5116961;28;20452;-65
2024/03/20 11:35:38;;;;;;;9.20;7.40;;;16.20;93.30;;;;;;5116867;28;20958;-63
2024/03/20 11:38:05;;;;;;;10.50;7.90;;;16.30;93.60;;;;;;5116771;28;20547;-64
2024/03/20 11:40:32;;;;;;;7.43;6.70;;;16.30;92.90;;;;;;5116988;28;20888;-64
2024/03/20 11:42:59;;;;;;;8.73;7.60;;;16.40;93.20;;;;;;5117014;28;20555;-64
2024/03/20 11:45:26;;;;;;;8.77;7.87;;;16.60;93.00;;;;;;5116746;28;20525;-68
2024/03/20 11:47:53;;;;;;;10.70;8.30;;;16.70;92.70;;;;;;5116653;28;20452;-69
2024/03/20 11:50:19;;;;;;;8.53;7.50;;;16.80;92.90;;;;;;5116421;28;20451;-64
2024/03/20 11:52:45;;;;;;;9.40;8.00;;;17.00;92.70;;;;;;5116125;28;20855;-63
2024/03/20 11:55:12;;;;;;;16.20;7.60;;;17.00;92.70;;;;;;5116530;28;20680;-64
2024/03/20 11:57:40;;;;;;;9.53;6.70;;;17.20;92.60;;;;;;5116382;28;20489;-68
2024/03/20 12:00:11;;;;;;;10.90;7.23;;;17.30;92.60;;;;;;5116497;28;20489;-65
2024/03/20 12:02:40;;;;;;;13.97;7.30;;;17.30;92.20;;;;;;5116341;28;20457;-64
2024/03/20 12:05:07;;;;;;;9.93;8.00;;;17.20;91.90;;;;;;5116111;27;20506;-62
2024/03/20 12:07:35;;;;;;;12.83;7.50;;;17.20;92.00;;;;;;5116303;28;20456;-63
2024/03/20 12:10:00;;;;;;;8.53;7.20;;;17.20;92.70;;;;;;5116334;28;20442;-66
2024/03/20 12:12:27;;;;;;;8.37;6.90;;;17.30;92.30;;;;;;5116152;28;20536;-65
2024/03/20 12:14:53;;;;;;;11.40;7.93;;;17.40;92.50;;;;;;5116228;28;20536;-62
2024/03/20 12:17:19;;;;;;;7.77;7.07;;;17.40;92.00;;;;;;5116210;28;20559;-65
2024/03/20 12:19:46;;;;;;;8.33;7.30;;;17.50;92.00;;;;;;5115955;28;20208;-63
2024/03/20 12:22:15;;;;;;;8.87;7.53;;;17.50;91.70;;;;;;5116468;28;20450;-62
2024/03/20 12:24:41;;;;;;;10.90;8.77;;;17.60;92.20;;;;;;5116160;28;20877;-62
2024/03/20 12:27:09;;;;;;;11.77;8.80;;;17.70;92.10;;;;;;5116105;28;20552;-62
2024/03/20 12:29:34;;;;;;;11.60;9.13;;;17.90;92.00;;;;;;5115903;28;20294;-62
2024/03/20 12:32:01;;;;;;;12.00;9.00;;;18.10;92.30;;;;;;5115940;27;20544;-62
2024/03/20 12:34:27;;;;;;;10.17;7.60;;;18.20;91.50;;;;;;5115864;28;20274;-62
2024/03/20 12:36:54;;;;;;;9.80;8.80;;;18.20;91.40;;;;;;5115740;27;20548;-61